This is the latest recevied weather packets stored in our database for station/object DK4HPA-4. If no packets are shown the sender has not sent any weather packets the latest 10 day(s).
| Time | Temp. | Humidity | Pressure | Rain* | Wind** | Luminosity | Snow |
|---|---|---|---|---|---|---|---|
| 1778198468 | 2.78° C | 96% | 1026.4 hPa | 0 mm | - | 0 W/m² | - |
| 1778197950 | 2.78° C | 95% | 1026.4 hPa | 0 mm | - | 0 W/m² | - |
| 1778195533 | 3.89° C | 93% | 1026.1 hPa | 0 mm | - | 0 W/m² | - |
| 1778193765 | 4.44° C | 90% | 1026.2 hPa | 0 mm | - | 0 W/m² | - |
| 1778193053 | 5° C | 89% | 1026.2 hPa | 0 mm | - | 0 W/m² | - |
| 1778192525 | 5° C | 88% | 1026.2 hPa | 0 mm | - | 0 W/m² | - |
| 1778191997 | 5.56° C | 87% | 1026.1 hPa | 0 mm | - | 0 W/m² | - |
| 1778191237 | 5.56° C | 87% | 1026 hPa | 0 mm | - | 0 W/m² | - |
| 1778188869 | 6.67° C | 79% | 1025.9 hPa | 0 mm | - | 0 W/m² | - |
| 1778188229 | 7.22° C | 78% | 1025.8 hPa | 0 mm | - | 0 W/m² | - |
| 1778187726 | 7.22° C | 78% | 1025.6 hPa | 0 mm | - | 0 W/m² | - |
| 1778187125 | 7.78° C | 75% | 1025.7 hPa | 0 mm | - | 0 W/m² | - |
| 1778186534 | 8.33° C | 74% | 1025.5 hPa | 0 mm | - | 0 W/m² | - |
| 1778185981 | 8.33° C | 74% | 1025.6 hPa | 0 mm | - | 0 W/m² | - |
| 1778185333 | 8.33° C | 74% | 1025.3 hPa | 0 mm | - | 0 W/m² | - |
| 1778184133 | 8.33° C | 75% | 1025.2 hPa | 0 mm | - | 0 W/m² | - |
| 1778183501 | 8.33° C | 75% | 1025.1 hPa | 0 mm | - | 0 W/m² | - |
| 1778182327 | 9.44° C | 70% | 1024.9 hPa | 0 mm | - | 0 W/m² | - |
| 1778181751 | 10° C | 69% | 1024.9 hPa | 0 mm | - | 0 W/m² | - |
| 1778180486 | 10.56° C | 67% | 1024.6 hPa | 0 mm | - | 1 W/m² | - |
| 1778179262 | 11.67° C | 65% | 1024.4 hPa | 0 mm | - | 9 W/m² | - |
| 1778178136 | 12.22° C | 64% | 1024.2 hPa | 0 mm | - | 17 W/m² | - |
| 1778176886 | 12.78° C | 61% | 1024.1 hPa | 0 mm | - | 27 W/m² | - |
| 1778175158 | 13.89° C | 57% | 1023.7 hPa | 0 mm | - | 55 W/m² | - |
| 1778173936 | 13.89° C | 57% | 1023.6 hPa | 0 mm | - | 45 W/m² | - |
* Rain latest hour (hover to see other rain measurements)
** Current wind speed in m/s (hover to see current wind gust speed)